Time;durP1;ratioP1;P1;durP2;ratioP2;P2;SDS_P1;SDS_P2;PMS_P1;PMS_P2;Temp;Humidity;BMP_temperature;BMP_pressure;BME280_temperature;BME280_humidity;BME280_pressure;Samples;Min_cycle;Max_cycle;Signal;HPM_P1;HPM_P2
2021/07/21 00:01:27;;;;;;;10.27;6.95;;;14.90;99.90;;;;;;4983664;28;20036;-75
2021/07/21 00:03:53;;;;;;;10.18;7.05;;;14.90;99.90;;;;;;4982583;28;20029;-76
2021/07/21 00:06:18;;;;;;;11.02;6.85;;;14.90;99.90;;;;;;4995075;28;20061;-75
2021/07/21 00:08:44;;;;;;;11.02;7.85;;;14.80;99.90;;;;;;4995413;28;20098;-75
2021/07/21 00:13:55;;;;;;;10.93;7.07;;;14.70;99.90;;;;;;4995615;28;20044;-75
2021/07/21 00:16:28;;;;;;;9.15;6.65;;;14.50;99.90;;;;;;4995098;28;20031;-75
2021/07/21 00:18:58;;;;;;;14.60;7.28;;;14.40;99.90;;;;;;4995325;28;20444;-75
2021/07/21 00:21:26;;;;;;;12.27;7.65;;;14.50;99.90;;;;;;4993935;28;20436;-76
2021/07/21 00:23:52;;;;;;;11.23;7.72;;;14.40;99.90;;;;;;4994858;28;20019;-75
2021/07/21 00:26:18;;;;;;;10.98;7.88;;;14.50;99.90;;;;;;4993567;28;20042;-75
2021/07/21 00:28:43;;;;;;;11.77;7.28;;;14.50;99.90;;;;;;4995171;28;20061;-75
2021/07/21 00:31:10;;;;;;;10.20;7.75;;;14.50;99.90;;;;;;4995023;28;20519;-75
2021/07/21 00:33:37;;;;;;;10.13;6.85;;;14.50;99.90;;;;;;4993697;28;20035;-75
2021/07/21 00:36:04;;;;;;;9.75;7.28;;;14.60;99.90;;;;;;4993387;28;20038;-75
2021/07/21 00:38:29;;;;;;;12.45;7.40;;;14.50;99.90;;;;;;4994806;28;20030;-75
2021/07/21 00:40:55;;;;;;;9.23;7.00;;;14.40;99.90;;;;;;5006066;28;20107;-76
2021/07/21 00:43:21;;;;;;;9.75;7.40;;;14.40;99.90;;;;;;4982632;28;20060;-76
2021/07/21 00:45:46;;;;;;;10.32;7.00;;;14.20;99.90;;;;;;4993269;28;20022;-75
2021/07/21 00:48:12;;;;;;;11.00;7.40;;;14.30;99.90;;;;;;4994597;28;20042;-76
2021/07/21 00:50:37;;;;;;;12.05;7.63;;;14.50;99.90;;;;;;4985800;28;20608;-75
2021/07/21 00:53:03;;;;;;;10.85;7.50;;;14.30;99.90;;;;;;4994776;28;20098;-76
2021/07/21 00:55:29;;;;;;;10.45;6.78;;;14.20;99.90;;;;;;4994669;28;20057;-75
2021/07/21 00:57:58;;;;;;;8.88;6.82;;;14.20;99.90;;;;;;4993001;28;20104;-75
2021/07/21 01:00:24;;;;;;;11.95;6.88;;;14.10;99.90;;;;;;5004396;28;20030;-75
2021/07/21 01:02:50;;;;;;;9.75;7.10;;;14.20;99.90;;;;;;4983626;28;20412;-75
2021/07/21 01:05:28;;;;;;;11.65;7.43;;;14.10;99.90;;;;;;4992820;28;20396;-75
2021/07/21 01:07:54;;;;;;;10.25;7.40;;;14.10;99.90;;;;;;4994373;28;20072;-75
2021/07/21 01:10:21;;;;;;;11.95;7.63;;;14.10;99.90;;;;;;4988168;28;20030;-75
2021/07/21 01:13:12;;;;;;;10.00;7.28;;;14.00;99.90;;;;;;4986487;28;20354;-75
2021/07/21 01:15:56;;;;;;;10.18;7.22;;;13.90;99.90;;;;;;4992825;28;20022;-75
2021/07/21 01:18:50;;;;;;;9.43;7.35;;;13.80;99.90;;;;;;4994111;28;20041;-75
2021/07/21 01:21:38;;;;;;;11.75;7.70;;;13.80;99.90;;;;;;4992426;28;20034;-75
2021/07/21 01:24:26;;;;;;;9.23;7.38;;;13.90;99.90;;;;;;5003411;28;20030;-75
2021/07/21 01:26:58;;;;;;;10.55;7.80;;;13.90;99.90;;;;;;4980506;28;20035;-75
2021/07/21 01:29:27;;;;;;;10.77;6.78;;;13.80;99.90;;;;;;4992758;28;20524;-75
2021/07/21 01:31:56;;;;;;;9.98;7.40;;;13.70;99.90;;;;;;4993879;28;20117;-75
2021/07/21 01:34:26;;;;;;;13.95;7.30;;;13.70;99.90;;;;;;4993678;28;20033;-75
2021/07/21 01:36:54;;;;;;;10.40;7.05;;;13.90;99.90;;;;;;4993779;28;20511;-75
2021/07/21 01:39:26;;;;;;;12.57;7.72;;;14.00;99.90;;;;;;4992552;28;20114;-75
2021/07/21 01:41:58;;;;;;;9.20;7.82;;;13.80;99.90;;;;;;4993735;28;20494;-75
2021/07/21 01:44:27;;;;;;;10.38;7.25;;;13.80;99.90;;;;;;4993605;28;20347;-75
2021/07/21 01:46:58;;;;;;;10.55;8.15;;;13.90;99.90;;;;;;4993415;28;20037;-75
2021/07/21 01:49:28;;;;;;;10.77;7.43;;;13.60;99.90;;;;;;4993564;28;20028;-75
2021/07/21 01:51:55;;;;;;;10.27;7.82;;;13.80;99.90;;;;;;4993568;28;20039;-75
2021/07/21 01:54:22;;;;;;;9.80;7.35;;;13.70;99.90;;;;;;4992105;28;20034;-75
2021/07/21 01:56:49;;;;;;;10.60;7.55;;;13.70;99.90;;;;;;4993254;28;20022;-75
2021/07/21 01:59:16;;;;;;;12.35;7.50;;;13.80;99.90;;;;;;4992222;28;20034;-76
2021/07/21 02:01:43;;;;;;;12.82;7.40;;;13.70;99.90;;;;;;4993117;28;20026;-75
2021/07/21 02:04:09;;;;;;;9.55;7.13;;;13.70;99.90;;;;;;4993343;28;20034;-75
2021/07/21 02:06:36;;;;;;;12.68;7.40;;;13.80;99.90;;;;;;4993092;28;20037;-75
2021/07/21 02:09:06;;;;;;;12.55;7.28;;;13.80;99.90;;;;;;4993305;28;20022;-75
2021/07/21 02:11:32;;;;;;;9.88;7.93;;;13.70;99.90;;;;;;4991898;28;20033;-75
2021/07/21 02:13:59;;;;;;;11.82;7.22;;;13.60;99.90;;;;;;4993134;28;20030;-75
2021/07/21 02:16:25;;;;;;;11.25;7.40;;;13.30;99.90;;;;;;4979803;28;20029;-75
2021/07/21 02:18:54;;;;;;;9.48;7.25;;;13.50;99.90;;;;;;4993275;28;20080;-75
2021/07/21 02:21:20;;;;;;;13.32;7.90;;;13.60;99.90;;;;;;4991725;28;20041;-75
2021/07/21 02:23:47;;;;;;;11.45;7.95;;;13.60;99.90;;;;;;4992984;28;20084;-75
2021/07/21 02:26:15;;;;;;;9.32;7.00;;;13.50;99.90;;;;;;4992385;28;20054;-75
2021/07/21 02:28:40;;;;;;;12.57;7.70;;;13.40;99.90;;;;;;4992840;28;20049;-75
2021/07/21 02:31:10;;;;;;;10.63;7.95;;;13.50;99.90;;;;;;5001312;28;20481;-75
2021/07/21 02:33:54;;;;;;;12.90;8.77;;;13.20;99.90;;;;;;4985585;28;20042;-75
2021/07/21 02:36:20;;;;;;;11.45;8.43;;;12.70;99.90;;;;;;4981177;28;20026;-75
2021/07/21 02:38:46;;;;;;;12.88;8.57;;;12.90;99.90;;;;;;4992733;28;20037;-75
2021/07/21 02:41:12;;;;;;;12.75;8.90;;;12.90;99.90;;;;;;4993011;28;20041;-75
2021/07/21 02:43:37;;;;;;;10.95;8.43;;;13.20;99.90;;;;;;4991324;28;20026;-75
2021/07/21 02:46:03;;;;;;;18.15;8.55;;;13.10;99.90;;;;;;4992401;28;20033;-75
2021/07/21 02:48:30;;;;;;;13.27;9.13;;;12.90;99.90;;;;;;4991275;28;20031;-75
2021/07/21 02:51:14;;;;;;;12.60;8.80;;;12.80;99.90;;;;;;4998700;28;20117;-75
2021/07/21 02:53:45;;;;;;;9.52;8.02;;;13.00;99.90;;;;;;4992432;28;20022;-75
2021/07/21 02:56:13;;;;;;;14.05;8.35;;;13.00;99.90;;;;;;4992285;28;20045;-75
2021/07/21 02:59:03;;;;;;;13.52;8.50;;;12.70;99.90;;;;;;4992367;28;20393;-75
2021/07/21 03:01:32;;;;;;;12.80;8.80;;;12.50;99.90;;;;;;4992387;28;20030;-75
2021/07/21 03:04:00;;;;;;;13.80;8.63;;;12.40;99.90;;;;;;4991489;28;20395;-75
2021/07/21 03:06:27;;;;;;;13.27;9.10;;;12.30;99.90;;;;;;4992019;28;20081;-75
2021/07/21 03:08:53;;;;;;;12.77;8.52;;;12.50;99.90;;;;;;4992429;28;20069;-75
2021/07/21 03:11:22;;;;;;;11.55;9.07;;;12.50;99.90;;;;;;4991016;28;20435;-75
2021/07/21 03:13:54;;;;;;;13.38;9.48;;;12.50;99.90;;;;;;4991056;28;20026;-75
2021/07/21 03:16:30;;;;;;;13.40;9.27;;;12.60;99.90;;;;;;4990625;28;20026;-75
2021/07/21 03:19:00;;;;;;;15.95;9.55;;;12.60;99.90;;;;;;4992236;28;20392;-75
2021/07/21 03:21:26;;;;;;;17.05;9.98;;;12.50;99.90;;;;;;4992202;28;20042;-75
2021/07/21 03:23:53;;;;;;;12.70;9.02;;;12.30;99.90;;;;;;4992247;28;20054;-75
2021/07/21 03:26:20;;;;;;;11.98;8.63;;;12.30;99.90;;;;;;4991864;28;20072;-75
2021/07/21 03:28:48;;;;;;;14.52;9.35;;;12.30;99.90;;;;;;4992172;28;20034;-76
2021/07/21 03:31:14;;;;;;;14.77;9.00;;;12.30;99.90;;;;;;4992000;28;20026;-75
2021/07/21 03:33:44;;;;;;;14.80;9.30;;;12.30;99.90;;;;;;4992199;28;20125;-75
2021/07/21 03:36:10;;;;;;;12.00;8.13;;;12.50;99.90;;;;;;4993646;28;20026;-75
2021/07/21 03:38:37;;;;;;;14.25;9.32;;;12.60;99.90;;;;;;4996277;28;20049;-75
2021/07/21 03:41:03;;;;;;;15.50;8.68;;;12.50;99.90;;;;;;4996106;28;20034;-74
2021/07/21 03:43:31;;;;;;;18.48;9.27;;;12.60;99.90;;;;;;4996170;28;20018;-75
2021/07/21 03:45:58;;;;;;;12.40;9.98;;;12.40;99.90;;;;;;4995717;28;20488;-75
2021/07/21 03:48:25;;;;;;;11.63;8.43;;;12.50;99.90;;;;;;4996491;28;20037;-76
2021/07/21 03:50:54;;;;;;;11.75;9.18;;;12.50;99.90;;;;;;4995804;28;20026;-75
2021/07/21 03:53:20;;;;;;;12.45;8.45;;;12.60;99.90;;;;;;4995893;28;20113;-75
2021/07/21 03:55:46;;;;;;;12.45;8.90;;;12.70;99.90;;;;;;4995727;28;20169;-75
2021/07/21 03:58:12;;;;;;;14.85;9.30;;;12.70;99.90;;;;;;4995460;28;20498;-75
2021/07/21 04:00:38;;;;;;;18.38;8.90;;;12.60;99.90;;;;;;4995530;28;20041;-75
2021/07/21 04:03:05;;;;;;;13.48;9.15;;;12.60;99.90;;;;;;4995804;28;20018;-75
2021/07/21 04:05:32;;;;;;;13.18;9.55;;;12.70;99.90;;;;;;4995463;28;20030;-75
2021/07/21 04:07:59;;;;;;;12.13;9.50;;;12.40;99.90;;;;;;4995474;28;20109;-75
2021/07/21 04:10:28;;;;;;;16.55;9.43;;;12.40;99.90;;;;;;4995528;28;20030;-75
2021/07/21 04:12:56;;;;;;;13.75;9.93;;;12.40;99.90;;;;;;4995225;28;20064;-75
2021/07/21 04:15:23;;;;;;;13.77;9.07;;;12.40;99.90;;;;;;4995184;28;20081;-75
2021/07/21 04:17:52;;;;;;;13.75;8.80;;;12.50;99.90;;;;;;4995284;28;20034;-75
2021/07/21 04:20:18;;;;;;;13.02;9.15;;;12.40;99.90;;;;;;4995318;28;20072;-75
2021/07/21 04:22:45;;;;;;;13.68;8.60;;;12.50;99.90;;;;;;4980984;28;20117;-75
2021/07/21 04:25:13;;;;;;;9.77;8.02;;;12.50;99.90;;;;;;4993814;28;20126;-75
2021/07/21 04:27:40;;;;;;;13.20;8.90;;;12.40;99.90;;;;;;4994857;28;20026;-75
2021/07/21 04:30:07;;;;;;;12.90;8.57;;;12.50;99.90;;;;;;4995136;28;20408;-75
2021/07/21 04:32:34;;;;;;;14.02;9.25;;;12.60;99.90;;;;;;4993727;28;20023;-75
2021/07/21 04:35:00;;;;;;;13.32;10.13;;;12.60;99.90;;;;;;4994879;28;20027;-75
2021/07/21 04:37:26;;;;;;;12.32;9.13;;;12.50;99.90;;;;;;4994877;28;20030;-75
2021/07/21 04:39:54;;;;;;;12.80;9.27;;;12.60;99.90;;;;;;4994063;28;20023;-75
2021/07/21 04:42:20;;;;;;;16.13;9.52;;;12.50;99.90;;;;;;4994936;28;20022;-75
2021/07/21 04:44:46;;;;;;;12.55;8.75;;;12.70;99.90;;;;;;4994731;28;20019;-75
2021/07/21 04:47:12;;;;;;;10.88;8.48;;;13.00;99.90;;;;;;4994155;28;20357;-75
2021/07/21 04:49:42;;;;;;;13.40;8.63;;;12.90;99.90;;;;;;4994792;28;20036;-75
2021/07/21 04:52:08;;;;;;;12.88;8.40;;;13.10;99.90;;;;;;4994687;28;20117;-75
2021/07/21 04:54:34;;;;;;;12.30;8.48;;;13.00;99.90;;;;;;4994468;28;20571;-75
2021/07/21 04:57:01;;;;;;;13.48;9.45;;;13.20;99.90;;;;;;4994608;28;20026;-75
2021/07/21 04:59:27;;;;;;;12.82;9.10;;;13.00;99.90;;;;;;4993455;28;20493;-75
2021/07/21 05:01:53;;;;;;;14.05;9.10;;;13.10;99.90;;;;;;4994453;28;20125;-75
2021/07/21 05:04:19;;;;;;;14.20;9.00;;;13.30;99.90;;;;;;4994482;28;20106;-75
2021/07/21 05:06:45;;;;;;;15.88;8.63;;;13.50;99.90;;;;;;4994965;28;20026;-75
2021/07/21 05:09:11;;;;;;;12.13;8.50;;;13.40;99.90;;;;;;4994253;28;20507;-75
2021/07/21 05:11:37;;;;;;;15.25;8.98;;;13.50;99.90;;;;;;4994324;28;20026;-75
2021/07/21 05:14:03;;;;;;;10.77;8.00;;;13.70;99.90;;;;;;4994364;28;20026;-75
2021/07/21 05:16:29;;;;;;;11.70;9.40;;;13.60;99.90;;;;;;4992756;28;20492;-75
2021/07/21 05:18:55;;;;;;;13.32;8.82;;;13.80;99.90;;;;;;4994191;28;20068;-75
2021/07/21 05:21:20;;;;;;;13.48;8.70;;;14.00;99.90;;;;;;4994223;28;20040;-75
2021/07/21 05:23:46;;;;;;;11.20;8.18;;;13.90;99.90;;;;;;4994006;28;20374;-75
2021/07/21 05:26:12;;;;;;;11.38;8.32;;;14.00;99.90;;;;;;4992679;28;20078;-75
2021/07/21 05:28:39;;;;;;;10.63;8.18;;;14.10;99.90;;;;;;4994053;28;20027;-75
2021/07/21 05:31:05;;;;;;;11.65;8.85;;;14.10;99.90;;;;;;4994009;28;20026;-75
2021/07/21 05:33:31;;;;;;;12.18;8.55;;;14.20;99.90;;;;;;4994079;28;20069;-75
2021/07/21 05:35:57;;;;;;;11.70;8.20;;;14.30;99.90;;;;;;4992401;28;20065;-75
2021/07/21 05:38:23;;;;;;;11.20;8.00;;;14.30;99.90;;;;;;4993736;28;20033;-75
2021/07/21 05:40:49;;;;;;;12.82;8.70;;;14.40;99.90;;;;;;4993798;28;20397;-75
2021/07/21 05:43:14;;;;;;;12.15;7.90;;;14.50;99.90;;;;;;4993787;28;20026;-75
2021/07/21 05:45:40;;;;;;;11.20;8.05;;;14.60;99.90;;;;;;4993435;28;20539;-75
2021/07/21 05:48:05;;;;;;;12.70;8.50;;;14.60;99.90;;;;;;4992350;28;20030;-75
2021/07/21 05:50:31;;;;;;;11.32;8.75;;;14.50;99.90;;;;;;4992319;28;20030;-75
2021/07/21 05:52:58;;;;;;;14.05;9.68;;;14.50;99.90;;;;;;4993491;28;20384;-75
2021/07/21 05:55:23;;;;;;;15.68;9.38;;;14.50;99.90;;;;;;4991837;28;20038;-75
2021/07/21 05:57:49;;;;;;;12.25;9.15;;;14.40;99.90;;;;;;4992063;28;20037;-75
2021/07/21 06:00:15;;;;;;;12.23;8.60;;;14.30;99.90;;;;;;4991322;28;20026;-75
2021/07/21 06:02:40;;;;;;;14.65;8.95;;;14.40;99.90;;;;;;4993435;28;20105;-75
2021/07/21 06:05:07;;;;;;;11.93;8.80;;;14.50;99.90;;;;;;4991929;28;20166;-75
2021/07/21 06:07:33;;;;;;;12.25;8.75;;;14.70;99.90;;;;;;4991849;28;20029;-75
2021/07/21 06:09:58;;;;;;;17.30;8.85;;;14.70;99.90;;;;;;4993241;28;20105;-75
2021/07/21 06:12:24;;;;;;;11.27;8.38;;;15.00;99.90;;;;;;4992050;28;20022;-75
2021/07/21 06:14:50;;;;;;;11.52;7.80;;;15.30;99.90;;;;;;4992966;28;20026;-75
2021/07/21 06:17:16;;;;;;;10.95;8.35;;;15.40;99.90;;;;;;4993215;28;20061;-75
2021/07/21 06:19:41;;;;;;;11.43;7.65;;;15.70;99.90;;;;;;4991844;28;20034;-75
2021/07/21 06:22:07;;;;;;;12.95;7.90;;;15.90;99.90;;;;;;4993035;28;20039;-75
2021/07/21 06:24:35;;;;;;;15.40;7.60;;;16.10;99.90;;;;;;4991457;28;20544;-75
2021/07/21 06:27:00;;;;;;;12.18;8.18;;;16.40;99.90;;;;;;4993013;28;20473;-75
2021/07/21 06:29:27;;;;;;;13.32;7.97;;;16.40;99.90;;;;;;4993158;28;20073;-75
2021/07/21 06:31:52;;;;;;;12.02;8.15;;;16.50;99.90;;;;;;4992908;28;20109;-75
2021/07/21 06:34:18;;;;;;;18.10;7.85;;;16.50;99.90;;;;;;4992718;28;20536;-75
2021/07/21 06:36:44;;;;;;;11.95;7.70;;;16.50;99.90;;;;;;4991273;28;20033;-75
2021/07/21 06:39:09;;;;;;;12.85;7.60;;;16.70;99.90;;;;;;4992728;28;20100;-75
2021/07/21 06:41:35;;;;;;;9.85;7.10;;;16.80;99.90;;;;;;4992678;28;20045;-75
2021/07/21 06:44:01;;;;;;;13.18;7.05;;;16.90;99.90;;;;;;4992674;28;20026;-75
2021/07/21 06:46:28;;;;;;;12.80;7.60;;;17.00;99.90;;;;;;4992387;28;20084;-75
2021/07/21 06:48:54;;;;;;;9.52;7.22;;;17.10;99.90;;;;;;4992633;28;20019;-75
2021/07/21 06:51:20;;;;;;;9.82;6.95;;;17.10;99.90;;;;;;4980077;28;20034;-75
2021/07/21 06:53:46;;;;;;;11.75;7.45;;;17.00;99.90;;;;;;4989675;28;20113;-75
2021/07/21 06:56:12;;;;;;;11.40;6.85;;;17.30;99.90;;;;;;4992318;28;20065;-75
2021/07/21 06:58:38;;;;;;;13.43;6.30;;;17.30;99.90;;;;;;4981138;28;20511;-73
2021/07/21 07:01:03;;;;;;;9.65;5.63;;;17.50;99.90;;;;;;4986823;28;20031;-73
2021/07/21 07:03:29;;;;;;;9.57;5.90;;;17.50;99.90;;;;;;4992259;28;20025;-73
2021/07/21 07:05:55;;;;;;;9.15;5.45;;;17.70;99.90;;;;;;4990790;28;20054;-73
2021/07/21 07:08:21;;;;;;;9.43;5.68;;;17.90;99.90;;;;;;4992253;28;20022;-73
2021/07/21 07:10:47;;;;;;;9.38;5.22;;;18.00;99.90;;;;;;4991965;28;20034;-74
2021/07/21 07:13:12;;;;;;;9.85;5.35;;;18.00;99.90;;;;;;4986059;28;20531;-74
2021/07/21 07:15:38;;;;;;;9.52;5.57;;;18.30;99.90;;;;;;4985184;28;20113;-76
2021/07/21 07:18:06;;;;;;;10.10;5.30;;;18.30;99.90;;;;;;4986328;28;20109;-75
2021/07/21 07:20:32;;;;;;;8.60;5.28;;;18.30;99.90;;;;;;4983761;28;20022;-75
2021/07/21 07:22:57;;;;;;;8.05;5.20;;;18.40;99.90;;;;;;4991139;28;20026;-75
2021/07/21 07:25:23;;;;;;;8.45;5.50;;;18.50;99.90;;;;;;4991980;28;20019;-75
2021/07/21 07:27:48;;;;;;;7.57;5.28;;;18.40;99.90;;;;;;4992044;28;20094;-75
2021/07/21 07:30:14;;;;;;;9.48;5.78;;;18.50;99.90;;;;;;4992242;28;20065;-75
2021/07/21 07:32:40;;;;;;;8.60;5.50;;;18.40;99.90;;;;;;4992203;28;20093;-75
2021/07/21 07:35:06;;;;;;;9.10;5.90;;;18.40;99.90;;;;;;4991873;28;20022;-75
2021/07/21 07:37:31;;;;;;;12.80;5.57;;;18.70;99.90;;;;;;4991950;28;20600;-75
2021/07/21 07:39:57;;;;;;;9.98;5.63;;;18.70;99.90;;;;;;4990748;28;20503;-75
2021/07/21 07:42:22;;;;;;;8.40;5.45;;;18.80;99.90;;;;;;4992041;28;20102;-75
2021/07/21 07:44:48;;;;;;;11.90;5.82;;;19.00;99.90;;;;;;4991901;28;20022;-75
2021/07/21 07:47:14;;;;;;;9.68;5.65;;;18.90;99.90;;;;;;4990510;28;20026;-75
2021/07/21 07:49:40;;;;;;;8.10;5.85;;;19.00;99.90;;;;;;4991910;28;20054;-75
2021/07/21 07:52:06;;;;;;;10.35;5.35;;;19.10;99.90;;;;;;4991939;28;20369;-75
2021/07/21 07:54:31;;;;;;;9.65;6.25;;;19.10;99.90;;;;;;4991667;28;20034;-75
2021/07/21 07:56:57;;;;;;;11.20;5.72;;;19.10;99.90;;;;;;4990583;28;20033;-75
2021/07/21 07:59:23;;;;;;;7.55;5.68;;;19.20;99.90;;;;;;4991966;28;20035;-76
2021/07/21 08:01:48;;;;;;;10.07;6.15;;;19.30;99.90;;;;;;4991778;28;20031;-75
2021/07/21 08:04:14;;;;;;;11.20;6.53;;;19.30;99.90;;;;;;4990495;28;20022;-75
2021/07/21 08:06:39;;;;;;;12.95;6.90;;;19.30;99.90;;;;;;4991621;28;20027;-75
2021/07/21 08:09:15;;;;;;;10.77;7.00;;;19.20;99.90;;;;;;4991858;28;20019;-75
2021/07/21 08:11:48;;;;;;;13.65;7.57;;;19.20;99.90;;;;;;4991801;28;20077;-75
2021/07/21 08:14:18;;;;;;;10.43;6.43;;;19.30;99.90;;;;;;4991883;28;20492;-76
2021/07/21 08:16:51;;;;;;;11.43;7.07;;;19.50;99.90;;;;;;4991582;28;20485;-76
2021/07/21 08:19:18;;;;;;;10.88;7.40;;;19.50;99.90;;;;;;4991917;28;20487;-75
2021/07/21 08:21:44;;;;;;;9.65;7.28;;;19.40;99.90;;;;;;4999782;28;20026;-75
2021/07/21 08:24:09;;;;;;;9.68;6.95;;;19.50;99.90;;;;;;4983639;28;20042;-75
2021/07/21 08:26:35;;;;;;;10.77;7.68;;;19.50;99.90;;;;;;4975685;28;20073;-76
2021/07/21 08:29:01;;;;;;;9.35;7.18;;;19.70;99.90;;;;;;4974511;28;20134;-75
2021/07/21 08:31:26;;;;;;;11.60;7.32;;;19.60;99.90;;;;;;4983902;28;20026;-75
2021/07/21 08:33:52;;;;;;;10.65;7.10;;;20.20;99.90;;;;;;4995083;28;20030;-75
2021/07/21 08:36:17;;;;;;;11.10;7.38;;;20.80;99.90;;;;;;4993560;28;20030;-75
2021/07/21 08:38:43;;;;;;;9.18;7.30;;;20.50;99.90;;;;;;4994880;28;20053;-75
2021/07/21 08:41:09;;;;;;;8.07;7.00;;;20.50;99.90;;;;;;4994928;28;20032;-75
2021/07/21 08:43:37;;;;;;;14.13;7.55;;;20.30;99.90;;;;;;4994795;28;20060;-75
2021/07/21 08:46:03;;;;;;;11.75;7.03;;;20.50;99.90;;;;;;4994653;28;20031;-75
2021/07/21 08:48:28;;;;;;;13.35;7.13;;;20.40;99.90;;;;;;4993332;28;20492;-76
2021/07/21 08:50:54;;;;;;;9.52;7.90;;;20.40;99.90;;;;;;4999610;28;20033;-75
2021/07/21 08:53:20;;;;;;;11.77;7.95;;;20.20;99.90;;;;;;4994744;28;20400;-75
2021/07/21 08:55:49;;;;;;;11.18;7.70;;;20.20;99.90;;;;;;4994487;28;20035;-75
2021/07/21 08:58:18;;;;;;;8.93;7.68;;;20.20;99.90;;;;;;4993143;28;20547;-75
2021/07/21 09:00:44;;;;;;;11.85;7.30;;;20.30;99.90;;;;;;4994747;28;20037;-75
2021/07/21 09:03:11;;;;;;;10.23;7.78;;;20.20;99.90;;;;;;4993250;28;20392;-75
2021/07/21 09:05:36;;;;;;;11.70;8.07;;;20.30;99.90;;;;;;4994329;28;20077;-75
2021/07/21 09:08:03;;;;;;;9.38;6.97;;;20.40;99.90;;;;;;4994467;28;20504;-76
2021/07/21 09:10:29;;;;;;;9.73;6.88;;;20.40;99.90;;;;;;5001670;28;20033;-76
2021/07/21 09:12:55;;;;;;;12.15;6.78;;;20.60;99.90;;;;;;4983215;28;20031;-75
2021/07/21 09:15:22;;;;;;;10.45;7.55;;;20.50;99.90;;;;;;4973534;28;20022;-76
2021/07/21 09:18:04;;;;;;;9.63;7.43;;;20.90;99.90;;;;;;4989691;28;20037;-76
2021/07/21 09:20:31;;;;;;;12.20;7.40;;;21.20;99.90;;;;;;4994633;28;20022;-75
2021/07/21 09:22:57;;;;;;;8.93;6.45;;;20.80;99.90;;;;;;4994260;28;20439;-76
2021/07/21 09:25:26;;;;;;;11.07;6.88;;;21.30;99.90;;;;;;4993911;28;20113;-76
2021/07/21 09:27:55;;;;;;;11.88;7.30;;;21.60;99.90;;;;;;4992685;28;20049;-76
2021/07/21 09:30:26;;;;;;;9.18;6.90;;;21.60;99.90;;;;;;4992865;28;20463;-76
2021/07/21 09:33:00;;;;;;;11.45;6.97;;;21.60;99.90;;;;;;4992616;28;20036;-76
2021/07/21 09:35:31;;;;;;;9.52;6.97;;;21.30;99.90;;;;;;4993061;28;20030;-76
2021/07/21 09:37:58;;;;;;;9.30;6.78;;;21.70;99.90;;;;;;4981890;28;20034;-76
2021/07/21 09:40:24;;;;;;;8.98;6.38;;;22.00;99.90;;;;;;4992390;28;20401;-75
2021/07/21 09:42:51;;;;;;;10.52;7.57;;;21.60;99.90;;;;;;4993847;28;20125;-76
2021/07/21 09:45:18;;;;;;;11.40;7.18;;;21.60;99.90;;;;;;4993548;28;20496;-76
2021/07/21 09:47:52;;;;;;;12.48;7.20;;;21.60;99.90;;;;;;4993972;28;20037;-74
2021/07/21 09:50:28;;;;;;;11.57;7.30;;;21.80;99.90;;;;;;4992117;28;20068;-74
2021/07/21 09:52:55;;;;;;;9.48;7.70;;;22.10;99.90;;;;;;4992354;28;20026;-75
2021/07/21 09:55:22;;;;;;;10.50;7.25;;;22.10;99.90;;;;;;4992078;28;20053;-74
2021/07/21 09:58:09;;;;;;;9.05;7.10;;;22.20;99.90;;;;;;4993376;28;20568;-74
2021/07/21 10:00:42;;;;;;;10.60;7.15;;;22.40;99.90;;;;;;4992172;28;20030;-74
2021/07/21 10:03:12;;;;;;;8.50;6.22;;;22.40;99.90;;;;;;4980456;28;20026;-74
2021/07/21 10:06:02;;;;;;;11.82;6.97;;;22.60;99.90;;;;;;4993137;28;20022;-74
2021/07/21 10:08:34;;;;;;;9.63;6.68;;;22.20;99.90;;;;;;4993269;28;20022;-74
2021/07/21 10:11:23;;;;;;;9.10;7.18;;;22.10;99.90;;;;;;4993272;28;20026;-74
2021/07/21 10:13:50;;;;;;;8.75;6.50;;;22.70;99.90;;;;;;4993179;28;20080;-74
2021/07/21 10:16:37;;;;;;;7.32;6.40;;;22.90;99.90;;;;;;4992780;28;20037;-74
2021/07/21 10:19:15;;;;;;;10.02;6.55;;;22.90;99.90;;;;;;4991481;28;20443;-74
2021/07/21 10:21:51;;;;;;;10.30;7.10;;;22.80;99.90;;;;;;4992795;28;20022;-74
2021/07/21 10:24:17;;;;;;;13.25;6.50;;;22.90;99.90;;;;;;4993087;28;20049;-74
2021/07/21 10:26:44;;;;;;;9.38;6.60;;;22.60;99.90;;;;;;4992866;28;20029;-74
2021/07/21 10:29:11;;;;;;;10.00;6.53;;;22.70;99.90;;;;;;4992908;28;20085;-74
2021/07/21 10:31:37;;;;;;;7.65;6.20;;;22.80;99.90;;;;;;4991701;28;20026;-74
2021/07/21 10:34:03;;;;;;;7.78;6.60;;;23.40;99.90;;;;;;4991378;28;20054;-74
2021/07/21 10:36:30;;;;;;;8.43;6.65;;;23.40;99.90;;;;;;4992566;28;20369;-74
2021/07/21 10:38:56;;;;;;;9.45;7.20;;;23.20;99.90;;;;;;4992876;28;20516;-74
2021/07/21 10:41:22;;;;;;;9.13;7.00;;;23.20;99.90;;;;;;4992776;28;20041;-74
2021/07/21 10:43:52;;;;;;;9.35;6.10;;;23.70;99.90;;;;;;4992806;28;20306;-74
2021/07/21 10:46:31;;;;;;;12.15;7.18;;;23.90;99.90;;;;;;4991806;28;20058;-74
2021/07/21 10:49:19;;;;;;;9.70;6.97;;;23.60;99.90;;;;;;4991461;28;20033;-76
2021/07/21 11:00:24;;;;;;;8.32;6.03;;;23.60;99.90;;;;;;4992397;28;20034;-76
2021/07/21 11:02:52;;;;;;;8.68;6.00;;;24.20;99.90;;;;;;4992498;28;20389;-76
2021/07/21 11:05:36;;;;;;;7.82;6.07;;;24.90;99.90;;;;;;4990777;28;20495;-76
2021/07/21 11:08:04;;;;;;;7.63;6.80;;;25.00;99.90;;;;;;4992281;28;20054;-76
2021/07/21 11:10:36;;;;;;;8.40;6.57;;;25.10;99.90;;;;;;4992431;28;20200;-76
2021/07/21 11:13:04;;;;;;;9.20;6.32;;;24.50;99.90;;;;;;4991083;28;20057;-76
2021/07/21 11:15:45;;;;;;;10.10;6.65;;;24.60;99.90;;;;;;4990865;28;20030;-76
2021/07/21 11:18:23;;;;;;;10.02;6.68;;;24.80;99.90;;;;;;4992084;28;20022;-76
2021/07/21 11:21:05;;;;;;;7.80;6.50;;;24.50;99.90;;;;;;5005460;28;20022;-76
2021/07/21 11:23:49;;;;;;;7.00;6.30;;;24.20;99.90;;;;;;4980158;28;20026;-76
2021/07/21 11:26:36;;;;;;;9.27;6.32;;;24.20;99.90;;;;;;4991860;28;20417;-76
2021/07/21 11:29:20;;;;;;;;;;;24.20;99.90;;;;;;4992548;28;20026;-76
2021/07/21 11:31:50;;;;;;;9.80;6.25;;;25.10;99.90;;;;;;4992187;28;19972;-76
2021/07/21 11:34:26;;;;;;;7.50;6.00;;;25.70;99.90;;;;;;4991859;28;20081;-77
2021/07/21 11:36:56;;;;;;;7.55;5.95;;;26.00;99.90;;;;;;4991882;28;20034;-76
2021/07/21 11:39:47;;;;;;;7.97;6.43;;;26.10;99.90;;;;;;4992092;28;20028;-75
2021/07/21 11:42:34;;;;;;;8.25;5.90;;;25.70;99.90;;;;;;4991966;28;20065;-76
2021/07/21 11:45:06;;;;;;;7.95;6.18;;;25.70;99.90;;;;;;4990566;28;20037;-75
2021/07/21 11:47:40;;;;;;;9.20;6.22;;;26.00;99.90;;;;;;4991737;28;20086;-76
2021/07/21 11:50:17;;;;;;;9.57;6.38;;;25.50;99.90;;;;;;4991935;28;20034;-76
2021/07/21 11:52:49;;;;;;;8.23;6.70;;;25.50;99.90;;;;;;4991999;28;20026;-76
2021/07/21 11:55:14;;;;;;;7.32;6.25;;;26.00;99.90;;;;;;4990417;28;20026;-76
2021/07/21 11:57:40;;;;;;;6.90;6.20;;;26.10;99.90;;;;;;4994193;28;20037;-76
2021/07/21 12:00:07;;;;;;;9.90;6.32;;;26.60;99.90;;;;;;4995610;28;20026;-75
2021/07/21 12:02:32;;;;;;;8.80;6.32;;;26.00;99.90;;;;;;4995690;28;20038;-76
2021/07/21 12:04:58;;;;;;;7.68;6.22;;;25.50;99.90;;;;;;4995400;28;20038;-76
2021/07/21 12:07:32;;;;;;;9.73;6.20;;;25.70;99.90;;;;;;4994378;28;20026;-76
2021/07/21 12:09:58;;;;;;;9.95;6.03;;;26.00;99.90;;;;;;4995419;28;20065;-76
2021/07/21 12:12:25;;;;;;;8.05;6.38;;;26.70;99.90;;;;;;4995585;28;20054;-76
2021/07/21 12:14:53;;;;;;;11.20;6.40;;;26.30;99.40;;;;;;4989510;28;20086;-76
2021/07/21 12:17:20;;;;;;;8.55;6.43;;;26.50;99.90;;;;;;4987325;28;20030;-75
2021/07/21 12:19:54;;;;;;;10.02;6.28;;;26.00;99.90;;;;;;5003303;28;20026;-76
2021/07/21 12:22:20;;;;;;;8.23;6.43;;;26.30;99.90;;;;;;4988487;28;20555;-76
2021/07/21 12:24:48;;;;;;;6.85;5.85;;;26.80;99.90;;;;;;4993641;28;20156;-76
2021/07/21 12:27:31;;;;;;;8.68;6.55;;;27.10;99.90;;;;;;4995201;28;20022;-76
2021/07/21 12:30:08;;;;;;;7.30;6.30;;;27.40;99.90;;;;;;4995339;28;20026;-76
2021/07/21 12:32:35;;;;;;;9.30;6.50;;;27.30;99.90;;;;;;4995531;28;20089;-76
2021/07/21 12:35:01;;;;;;;9.57;6.50;;;27.30;99.90;;;;;;4994872;28;20050;-76
2021/07/21 12:37:29;;;;;;;8.18;6.05;;;27.30;99.50;;;;;;4995006;28;20023;-75
2021/07/21 12:39:57;;;;;;;7.95;6.32;;;26.30;98.30;;;;;;4995084;28;20484;-75
2021/07/21 12:42:25;;;;;;;6.88;5.57;;;26.10;98.50;;;;;;4994827;28;20030;-75
2021/07/21 12:44:58;;;;;;;9.00;6.60;;;26.60;99.00;;;;;;4994720;28;20507;-74
2021/07/21 12:47:27;;;;;;;7.03;6.07;;;27.10;99.50;;;;;;4994592;28;20064;-74
2021/07/21 12:50:09;;;;;;;8.02;5.90;;;27.20;97.60;;;;;;4993501;28;20026;-74
2021/07/21 12:52:39;;;;;;;8.60;5.55;;;27.00;98.30;;;;;;4982426;28;20122;-74
2021/07/21 12:55:07;;;;;;;8.15;6.43;;;27.70;97.10;;;;;;4994370;28;20101;-75
2021/07/21 12:57:34;;;;;;;8.18;6.10;;;27.70;96.40;;;;;;4994533;28;20046;-74
2021/07/21 13:00:05;;;;;;;6.85;6.15;;;27.80;96.30;;;;;;4994473;28;20031;-75